Time;durP1;ratioP1;P1;durP2;ratioP2;P2;SDS_P1;SDS_P2;PMS_P1;PMS_P2;Temp;Humidity;BMP_temperature;BMP_pressure;BME280_temperature;BME280_humidity;BME280_pressure;Samples;Min_cycle;Max_cycle;Signal;HPM_P1;HPM_P2
2021/05/20 00:01:17;;;;;;;22.90;15.00;;;11.40;99.90;;;;;;5050176;28;20302;-48
2021/05/20 00:03:44;;;;;;;21.70;14.73;;;11.40;99.90;;;;;;5048656;28;20279;-48
2021/05/20 00:06:11;;;;;;;20.70;14.27;;;11.10;99.90;;;;;;5053084;28;20253;-48
2021/05/20 00:08:38;;;;;;;18.73;13.77;;;11.30;99.90;;;;;;5051701;28;20245;-48
2021/05/20 00:11:04;;;;;;;18.37;14.50;;;11.10;99.90;;;;;;5050489;28;20199;-47
2021/05/20 00:13:31;;;;;;;18.37;14.57;;;10.90;99.90;;;;;;5052998;28;20238;-48
2021/05/20 00:15:58;;;;;;;21.30;15.67;;;10.50;99.90;;;;;;5051098;28;20204;-48
2021/05/20 00:18:25;;;;;;;20.83;14.53;;;10.40;99.90;;;;;;5052225;28;20566;-48
2021/05/20 00:20:52;;;;;;;21.27;14.60;;;10.60;99.90;;;;;;5053450;28;20198;-47
2021/05/20 00:23:18;;;;;;;21.73;13.97;;;10.70;99.90;;;;;;5048007;28;20202;-48
2021/05/20 00:25:45;;;;;;;22.40;14.73;;;10.80;99.90;;;;;;5053786;28;20982;-48
2021/05/20 00:28:12;;;;;;;20.67;14.70;;;10.80;99.90;;;;;;5048931;28;20259;-48
2021/05/20 00:30:39;;;;;;;19.57;14.33;;;10.70;99.90;;;;;;5049139;28;20289;-47
2021/05/20 00:33:05;;;;;;;20.13;14.60;;;10.70;99.90;;;;;;5049068;28;20635;-47
2021/05/20 00:35:32;;;;;;;22.57;14.67;;;10.70;99.90;;;;;;5052106;28;20251;-47
2021/05/20 00:37:59;;;;;;;21.67;13.93;;;10.50;99.90;;;;;;5044796;28;20841;-48
2021/05/20 00:40:26;;;;;;;19.63;13.73;;;10.40;99.90;;;;;;5051147;28;20240;-48
2021/05/20 00:42:52;;;;;;;20.27;13.93;;;10.50;99.90;;;;;;5046844;28;20631;-48
2021/05/20 00:45:19;;;;;;;18.40;13.63;;;10.40;99.90;;;;;;5051223;28;20225;-48
2021/05/20 00:47:46;;;;;;;22.70;14.27;;;10.40;99.90;;;;;;5051204;28;20296;-48
2021/05/20 00:50:13;;;;;;;23.23;14.07;;;10.50;99.90;;;;;;5049789;28;20198;-48
2021/05/20 00:52:40;;;;;;;22.00;14.23;;;10.60;99.90;;;;;;5048828;28;20251;-47
2021/05/20 00:55:08;;;;;;;18.80;13.03;;;10.40;99.90;;;;;;5052433;28;20307;-48
2021/05/20 00:57:36;;;;;;;20.10;14.10;;;10.30;99.90;;;;;;5052122;28;20214;-48
2021/05/20 01:00:08;;;;;;;19.13;13.67;;;10.40;99.90;;;;;;5049970;28;20385;-48
2021/05/20 01:02:37;;;;;;;18.90;13.03;;;10.30;99.90;;;;;;5049915;28;20209;-48
2021/05/20 01:05:09;;;;;;;20.43;13.87;;;10.20;99.90;;;;;;5047996;28;20301;-48
2021/05/20 01:07:36;;;;;;;19.57;14.03;;;10.10;99.90;;;;;;5047529;28;20233;-48
2021/05/20 01:10:05;;;;;;;20.07;14.17;;;10.00;99.90;;;;;;5049868;28;20541;-48
2021/05/20 01:12:33;;;;;;;17.00;12.20;;;10.00;99.90;;;;;;5049825;28;20771;-50
2021/05/20 01:15:00;;;;;;;18.63;13.63;;;9.80;99.90;;;;;;5050765;28;20301;-48
2021/05/20 01:17:28;;;;;;;19.23;13.80;;;9.80;99.90;;;;;;5048028;28;20257;-48
2021/05/20 01:19:55;;;;;;;18.33;12.97;;;9.70;99.90;;;;;;5049456;28;20243;-48
2021/05/20 01:22:22;;;;;;;20.67;13.37;;;9.80;99.90;;;;;;5043223;28;20291;-48
2021/05/20 01:24:50;;;;;;;19.57;13.70;;;10.00;99.90;;;;;;5048857;28;20204;-48
2021/05/20 01:27:16;;;;;;;18.83;12.53;;;10.00;99.90;;;;;;5051390;28;20313;-48
2021/05/20 01:29:44;;;;;;;19.87;12.87;;;10.00;99.90;;;;;;5048169;28;20676;-48
2021/05/20 01:32:12;;;;;;;20.73;13.80;;;10.00;99.90;;;;;;5048397;28;20270;-48
2021/05/20 01:34:39;;;;;;;20.53;13.30;;;9.90;99.90;;;;;;5046707;28;20239;-47
2021/05/20 01:37:08;;;;;;;20.67;13.30;;;9.90;99.90;;;;;;5048507;28;20617;-48
2021/05/20 01:39:36;;;;;;;21.00;13.93;;;9.70;99.90;;;;;;5051655;28;20498;-48
2021/05/20 01:42:03;;;;;;;21.93;14.30;;;9.70;99.90;;;;;;5048128;28;20645;-48
2021/05/20 01:44:30;;;;;;;23.23;14.70;;;9.70;99.90;;;;;;5052591;28;20204;-47
2021/05/20 01:46:56;;;;;;;21.70;14.53;;;9.70;99.90;;;;;;5053166;28;20654;-48
2021/05/20 01:49:23;;;;;;;25.70;15.10;;;9.60;99.90;;;;;;5055807;28;20236;-48
2021/05/20 01:51:50;;;;;;;20.47;15.00;;;9.60;99.90;;;;;;5049181;28;20242;-48
2021/05/20 01:54:17;;;;;;;22.63;15.40;;;9.40;99.90;;;;;;5056094;28;20200;-48
2021/05/20 01:56:44;;;;;;;24.73;15.33;;;9.70;99.90;;;;;;5054695;28;20216;-49
2021/05/20 01:59:11;;;;;;;24.60;14.27;;;9.80;99.90;;;;;;5054503;28;20215;-47
2021/05/20 02:01:40;;;;;;;26.13;16.77;;;9.80;99.90;;;;;;5050898;28;20201;-48
2021/05/20 02:04:07;;;;;;;23.00;13.97;;;9.90;99.90;;;;;;5055463;28;20271;-48
2021/05/20 02:06:34;;;;;;;22.30;14.87;;;9.90;99.90;;;;;;5055814;28;20250;-48
2021/05/20 02:09:03;;;;;;;24.77;15.57;;;9.80;99.90;;;;;;5055645;28;20279;-51
2021/05/20 02:11:29;;;;;;;22.10;14.47;;;9.70;99.90;;;;;;5055865;28;20280;-48
2021/05/20 02:13:56;;;;;;;27.80;15.77;;;9.80;99.90;;;;;;5052557;28;20293;-48
2021/05/20 02:16:24;;;;;;;25.70;16.13;;;9.80;99.90;;;;;;5056567;28;20252;-48
2021/05/20 02:18:50;;;;;;;23.67;15.63;;;9.90;99.90;;;;;;5054587;28;20564;-48
2021/05/20 02:21:17;;;;;;;26.17;16.67;;;9.70;99.90;;;;;;5056226;28;20707;-48
2021/05/20 02:23:44;;;;;;;22.47;15.17;;;9.60;99.90;;;;;;5053094;28;20220;-47
2021/05/20 02:26:11;;;;;;;24.90;15.97;;;9.60;99.90;;;;;;5052935;28;20293;-47
2021/05/20 02:28:38;;;;;;;28.37;16.93;;;9.60;99.90;;;;;;5055874;28;20257;-48
2021/05/20 02:31:05;;;;;;;27.87;17.70;;;9.50;99.90;;;;;;5054176;28;20198;-47
2021/05/20 02:33:32;;;;;;;24.20;16.00;;;9.60;99.90;;;;;;5051974;28;20200;-48
2021/05/20 02:35:58;;;;;;;26.90;17.33;;;9.60;99.90;;;;;;5051784;28;20198;-48
2021/05/20 02:38:25;;;;;;;30.33;17.73;;;9.60;99.90;;;;;;5052017;28;20259;-47
2021/05/20 02:40:52;;;;;;;30.57;18.33;;;9.60;99.90;;;;;;5054506;28;20304;-48
2021/05/20 02:43:19;;;;;;;29.50;17.40;;;9.70;99.90;;;;;;5049006;28;20306;-48
2021/05/20 02:45:46;;;;;;;27.03;16.67;;;9.60;99.90;;;;;;5049331;28;20389;-47
2021/05/20 02:48:16;;;;;;;28.10;16.60;;;9.50;99.90;;;;;;5050036;28;20535;-47
2021/05/20 02:50:43;;;;;;;28.40;16.80;;;9.60;99.90;;;;;;5050447;28;20277;-48
2021/05/20 02:53:10;;;;;;;29.50;18.03;;;9.70;99.90;;;;;;5047486;28;20269;-48
2021/05/20 02:55:37;;;;;;;26.77;15.97;;;9.60;99.90;;;;;;5046958;28;20230;-47
2021/05/20 02:58:03;;;;;;;33.57;16.23;;;9.70;99.90;;;;;;5050048;28;20258;-48
2021/05/20 03:00:35;;;;;;;35.80;16.77;;;9.30;99.90;;;;;;5045750;28;20259;-48
2021/05/20 03:03:03;;;;;;;48.60;16.00;;;9.00;99.90;;;;;;5049359;28;20259;-48
2021/05/20 03:05:30;;;;;;;32.70;16.77;;;9.10;99.90;;;;;;5051051;28;20254;-47
2021/05/20 03:07:59;;;;;;;33.97;16.07;;;8.90;99.90;;;;;;5046422;28;20282;-47
2021/05/20 03:10:26;;;;;;;27.67;16.47;;;9.00;99.90;;;;;;5049628;28;20213;-48
2021/05/20 03:12:54;;;;;;;38.80;15.27;;;8.90;99.90;;;;;;5050063;28;20255;-48
2021/05/20 03:15:21;;;;;;;29.33;15.60;;;8.80;99.90;;;;;;5049644;28;20721;-47
2021/05/20 03:17:48;;;;;;;31.27;16.13;;;8.80;99.90;;;;;;5046836;28;20208;-47
2021/05/20 03:20:17;;;;;;;34.43;13.30;;;8.80;99.90;;;;;;5048614;28;20269;-47
2021/05/20 03:22:46;;;;;;;29.27;14.60;;;8.70;99.90;;;;;;5049285;28;20204;-48
2021/05/20 03:25:17;;;;;;;36.40;14.47;;;8.70;99.90;;;;;;5049215;28;20227;-47
2021/05/20 03:27:45;;;;;;;28.83;16.30;;;8.70;99.90;;;;;;5049518;28;20223;-47
2021/05/20 03:30:12;;;;;;;37.67;14.57;;;8.80;99.90;;;;;;5047386;28;20295;-47
2021/05/20 03:32:40;;;;;;;26.77;14.93;;;8.70;99.90;;;;;;5048937;28;20230;-47
2021/05/20 03:35:07;;;;;;;40.17;15.03;;;8.60;99.90;;;;;;5049964;28;20274;-48
2021/05/20 03:37:36;;;;;;;36.80;14.87;;;8.70;99.90;;;;;;5052882;28;20244;-48
2021/05/20 03:40:04;;;;;;;33.40;15.73;;;8.90;99.90;;;;;;5048081;28;20215;-48
2021/05/20 03:42:31;;;;;;;25.13;14.73;;;8.90;99.90;;;;;;5048561;28;20234;-47
2021/05/20 03:44:58;;;;;;;32.27;16.57;;;8.90;99.90;;;;;;5049767;28;20322;-48
2021/05/20 03:47:25;;;;;;;29.73;15.10;;;9.00;99.90;;;;;;5047928;28;20628;-47
2021/05/20 03:49:52;;;;;;;29.53;14.73;;;9.10;99.90;;;;;;5049038;28;20264;-47
2021/05/20 03:52:19;;;;;;;23.20;13.73;;;9.00;99.90;;;;;;5049465;28;20260;-48
2021/05/20 03:54:46;;;;;;;21.33;13.63;;;8.80;99.90;;;;;;5049493;28;20341;-47
2021/05/20 03:57:13;;;;;;;23.93;14.53;;;8.80;99.90;;;;;;5053943;28;20206;-47
2021/05/20 03:59:40;;;;;;;25.40;13.63;;;8.90;99.90;;;;;;5047647;28;20257;-47
2021/05/20 04:02:07;;;;;;;21.07;13.70;;;8.70;99.90;;;;;;5047178;28;20203;-48
2021/05/20 04:04:35;;;;;;;33.00;14.27;;;8.80;99.90;;;;;;5051348;28;20226;-48
2021/05/20 04:07:01;;;;;;;24.57;14.80;;;8.70;99.90;;;;;;5045370;28;20809;-50
2021/05/20 04:09:28;;;;;;;22.53;15.27;;;8.70;99.90;;;;;;5051959;28;20266;-48
2021/05/20 04:11:55;;;;;;;29.23;14.63;;;8.80;99.90;;;;;;5044288;28;20288;-48
2021/05/20 04:14:22;;;;;;;21.53;14.57;;;8.70;99.90;;;;;;5048831;28;20207;-49
2021/05/20 04:16:49;;;;;;;24.83;16.63;;;8.60;99.90;;;;;;5048287;28;20202;-49
2021/05/20 04:19:16;;;;;;;25.27;14.97;;;8.90;99.90;;;;;;5049964;28;20690;-48
2021/05/20 04:21:43;;;;;;;24.23;14.43;;;9.00;99.90;;;;;;5046720;28;20558;-48
2021/05/20 04:24:10;;;;;;;29.40;13.97;;;8.70;99.90;;;;;;5049124;28;20199;-49
2021/05/20 04:26:37;;;;;;;19.63;14.07;;;8.60;99.90;;;;;;5048977;28;21108;-49
2021/05/20 04:29:04;;;;;;;26.87;14.80;;;8.70;99.90;;;;;;5047227;28;20967;-49
2021/05/20 04:31:33;;;;;;;22.13;14.43;;;9.00;99.90;;;;;;5044975;28;20325;-48
2021/05/20 04:34:00;;;;;;;22.73;14.97;;;8.90;99.90;;;;;;5049516;28;20300;-50
2021/05/20 04:36:27;;;;;;;26.17;16.43;;;9.10;99.90;;;;;;5045910;28;20269;-48
2021/05/20 04:38:54;;;;;;;22.13;14.63;;;9.30;99.90;;;;;;5050377;28;20206;-49
2021/05/20 04:41:20;;;;;;;29.73;14.40;;;9.30;99.90;;;;;;5050510;28;20253;-49
2021/05/20 04:43:47;;;;;;;25.00;16.00;;;9.40;99.90;;;;;;5050025;28;20207;-50
2021/05/20 04:46:14;;;;;;;22.00;15.63;;;9.40;99.90;;;;;;5046427;28;20248;-49
2021/05/20 04:48:41;;;;;;;23.13;14.90;;;9.40;99.90;;;;;;5048748;28;20203;-48
2021/05/20 04:51:08;;;;;;;21.77;14.93;;;9.30;99.90;;;;;;5051195;28;20246;-49
2021/05/20 04:53:35;;;;;;;27.27;16.03;;;9.10;99.90;;;;;;5049229;28;20325;-48
2021/05/20 04:56:03;;;;;;;22.77;14.87;;;9.30;99.90;;;;;;5051724;28;20200;-49
2021/05/20 04:58:30;;;;;;;29.37;15.83;;;9.10;99.90;;;;;;5046554;28;20237;-48
2021/05/20 05:00:57;;;;;;;27.10;14.37;;;9.40;99.90;;;;;;5049114;28;20695;-49
2021/05/20 05:03:24;;;;;;;24.50;15.20;;;9.40;99.90;;;;;;5048498;28;20550;-50
2021/05/20 05:05:51;;;;;;;24.57;15.90;;;9.50;99.90;;;;;;5047731;28;20562;-50
2021/05/20 05:08:18;;;;;;;28.27;16.70;;;9.40;99.90;;;;;;5045497;28;20703;-50
2021/05/20 05:10:45;;;;;;;26.57;16.90;;;9.50;99.90;;;;;;5047896;28;20716;-49
2021/05/20 05:13:12;;;;;;;25.73;14.70;;;9.30;99.90;;;;;;5047962;28;20234;-50
2021/05/20 05:15:39;;;;;;;23.67;14.60;;;9.10;99.90;;;;;;5049859;28;20212;-48
2021/05/20 05:18:06;;;;;;;20.20;14.10;;;9.00;99.90;;;;;;5046523;28;20209;-51
2021/05/20 05:20:32;;;;;;;20.67;14.67;;;9.00;99.90;;;;;;5049172;28;20227;-49
2021/05/20 05:22:59;;;;;;;21.17;15.13;;;9.10;99.90;;;;;;5032206;28;20205;-49
2021/05/20 05:25:26;;;;;;;22.97;15.13;;;9.10;99.90;;;;;;5050364;28;20246;-50
2021/05/20 05:27:53;;;;;;;25.20;15.30;;;9.40;99.90;;;;;;5045814;28;20242;-49
2021/05/20 05:30:20;;;;;;;24.37;15.00;;;9.50;99.90;;;;;;5049103;28;20296;-49
2021/05/20 05:32:47;;;;;;;20.03;14.20;;;9.20;99.90;;;;;;5048352;28;20515;-50
2021/05/20 05:35:14;;;;;;;22.00;15.00;;;9.00;99.90;;;;;;5047865;28;20235;-48
2021/05/20 05:37:41;;;;;;;19.20;14.30;;;8.80;99.90;;;;;;5046038;28;20242;-48
2021/05/20 05:40:08;;;;;;;19.33;13.80;;;9.00;99.90;;;;;;5050525;28;20556;-49
2021/05/20 05:42:35;;;;;;;17.97;11.67;;;9.00;99.90;;;;;;5049450;28;20211;-49
2021/05/20 05:45:04;;;;;;;17.03;11.90;;;9.00;99.90;;;;;;5049266;28;21417;-49
2021/05/20 05:47:31;;;;;;;18.27;13.77;;;9.00;99.90;;;;;;5044587;28;20582;-50
2021/05/20 05:50:04;;;;;;;17.70;13.27;;;9.20;99.90;;;;;;5047951;28;20211;-50
2021/05/20 05:52:33;;;;;;;19.97;12.83;;;9.30;99.90;;;;;;5045735;28;20201;-49
2021/05/20 05:55:00;;;;;;;17.37;12.00;;;9.40;99.90;;;;;;5049142;28;20201;-50
2021/05/20 05:57:27;;;;;;;18.60;12.70;;;9.20;99.90;;;;;;5044838;28;20437;-49
2021/05/20 05:59:54;;;;;;;16.43;12.50;;;9.30;99.90;;;;;;5047632;28;20298;-50
2021/05/20 06:02:22;;;;;;;20.10;13.47;;;9.60;99.90;;;;;;5040371;28;20256;-50
2021/05/20 06:04:50;;;;;;;20.57;13.03;;;9.50;99.90;;;;;;5047319;28;20614;-49
2021/05/20 06:07:17;;;;;;;21.93;13.70;;;9.40;99.90;;;;;;5047487;28;20693;-49
2021/05/20 06:09:45;;;;;;;19.77;13.43;;;9.10;99.90;;;;;;5045304;28;20249;-49
2021/05/20 06:12:12;;;;;;;17.00;12.97;;;9.10;99.90;;;;;;5048102;28;20209;-50
2021/05/20 06:14:42;;;;;;;19.87;12.87;;;9.20;99.90;;;;;;5048782;28;20297;-49
2021/05/20 06:17:09;;;;;;;24.80;14.23;;;9.30;99.90;;;;;;5046904;28;21802;-49
2021/05/20 06:19:36;;;;;;;19.83;14.33;;;9.30;99.90;;;;;;5050100;28;20368;-49
2021/05/20 06:22:03;;;;;;;24.40;12.70;;;9.60;99.90;;;;;;5050478;28;20336;-50
2021/05/20 06:24:30;;;;;;;21.80;14.13;;;9.40;99.90;;;;;;5049918;28;20223;-51
2021/05/20 06:26:57;;;;;;;22.23;13.10;;;9.50;99.90;;;;;;5050506;28;20227;-49
2021/05/20 06:29:24;;;;;;;24.30;14.90;;;9.80;99.90;;;;;;5049640;28;20265;-48
2021/05/20 06:31:51;;;;;;;28.07;15.77;;;9.90;99.90;;;;;;5051061;28;20234;-49
2021/05/20 06:34:18;;;;;;;22.67;15.83;;;9.90;99.90;;;;;;5052101;28;20203;-49
2021/05/20 06:36:46;;;;;;;25.63;15.43;;;10.00;99.90;;;;;;5047021;28;20241;-49
2021/05/20 06:39:15;;;;;;;23.10;15.10;;;10.00;99.90;;;;;;5040222;28;20886;-49
2021/05/20 06:41:41;;;;;;;23.63;15.27;;;10.00;99.90;;;;;;5052236;28;20214;-49
2021/05/20 06:44:08;;;;;;;24.87;14.27;;;10.00;99.90;;;;;;5050296;28;20206;-49
2021/05/20 06:46:36;;;;;;;26.47;15.50;;;10.00;99.90;;;;;;5048765;28;20266;-50
2021/05/20 06:49:04;;;;;;;25.63;16.40;;;10.20;99.90;;;;;;5049021;28;20199;-48
2021/05/20 06:51:30;;;;;;;27.67;16.87;;;10.20;99.90;;;;;;5050772;28;20214;-48
2021/05/20 06:53:57;;;;;;;29.40;16.27;;;10.20;99.90;;;;;;5052434;28;20920;-49
2021/05/20 06:56:26;;;;;;;27.97;16.30;;;10.10;99.90;;;;;;5052909;28;20236;-48
2021/05/20 07:01:45;;;;;;;29.17;16.53;;;10.40;99.90;;;;;;5052227;28;20620;-49
2021/05/20 07:04:13;;;;;;;29.90;18.07;;;10.30;99.90;;;;;;5045320;28;20252;-49
2021/05/20 07:06:40;;;;;;;31.67;17.00;;;10.30;99.90;;;;;;5049352;28;20215;-48
2021/05/20 07:09:23;;;;;;;28.97;18.60;;;10.50;99.90;;;;;;5051426;28;20231;-49
2021/05/20 07:11:50;;;;;;;33.63;17.80;;;10.40;99.90;;;;;;5049765;28;20207;-49
2021/05/20 07:14:18;;;;;;;29.97;17.40;;;10.40;99.90;;;;;;5053154;28;20649;-49
2021/05/20 07:16:45;;;;;;;39.00;18.60;;;10.50;99.90;;;;;;5049380;28;20558;-49
2021/05/20 07:19:18;;;;;;;30.80;18.47;;;10.70;99.90;;;;;;5052964;28;20249;-48
2021/05/20 07:21:45;;;;;;;32.83;16.97;;;10.60;99.90;;;;;;5054826;28;20219;-48
2021/05/20 07:24:12;;;;;;;31.13;18.27;;;10.70;99.90;;;;;;5054468;28;20366;-48
2021/05/20 07:26:38;;;;;;;34.10;18.70;;;10.70;99.90;;;;;;5054753;28;20215;-48
2021/05/20 07:29:06;;;;;;;32.40;18.33;;;10.90;99.90;;;;;;5051666;28;20617;-48
2021/05/20 07:31:33;;;;;;;33.60;19.13;;;10.80;99.90;;;;;;5055354;28;20211;-49
2021/05/20 07:34:00;;;;;;;33.60;18.63;;;11.00;99.90;;;;;;5052802;28;20242;-48
2021/05/20 07:36:27;;;;;;;32.90;20.33;;;11.00;99.90;;;;;;5051886;28;20207;-48
2021/05/20 07:38:54;;;;;;;37.87;20.50;;;11.00;99.90;;;;;;5053054;28;20315;-49
2021/05/20 07:41:21;;;;;;;34.13;19.97;;;10.90;99.90;;;;;;5053004;28;20242;-48
2021/05/20 07:43:49;;;;;;;35.60;21.77;;;10.80;99.90;;;;;;5052686;28;20234;-48
2021/05/20 07:46:16;;;;;;;38.20;21.13;;;10.90;99.90;;;;;;5052799;28;20271;-48
2021/05/20 07:48:42;;;;;;;36.17;22.67;;;11.30;99.90;;;;;;5050594;28;20253;-48
2021/05/20 07:51:11;;;;;;;35.43;21.67;;;11.40;99.90;;;;;;5054719;28;20307;-48
2021/05/20 07:53:38;;;;;;;32.40;21.30;;;11.20;99.90;;;;;;5048444;28;20623;-48
2021/05/20 07:56:05;;;;;;;38.43;22.23;;;11.20;99.90;;;;;;5049824;28;20664;-49
2021/05/20 07:58:32;;;;;;;37.33;21.50;;;11.20;99.90;;;;;;5048875;28;20211;-48
2021/05/20 08:01:02;;;;;;;36.83;20.23;;;11.00;99.90;;;;;;5054477;28;20216;-49
2021/05/20 08:03:49;;;;;;;36.13;20.70;;;11.40;99.90;;;;;;5049721;28;20216;-48
2021/05/20 08:11:16;;;;;;;35.77;22.53;;;11.70;99.90;;;;;;5052996;28;20693;-48
2021/05/20 08:13:43;;;;;;;36.07;21.97;;;11.70;99.90;;;;;;5052778;28;20199;-48
2021/05/20 08:16:10;;;;;;;36.17;21.63;;;11.80;99.90;;;;;;5052410;28;20256;-48
2021/05/20 08:18:38;;;;;;;35.63;23.60;;;11.90;99.90;;;;;;5049350;28;20671;-49
2021/05/20 08:21:05;;;;;;;39.43;24.30;;;11.90;99.90;;;;;;5053125;28;20248;-48
2021/05/20 08:23:34;;;;;;;38.53;23.97;;;11.50;99.90;;;;;;5046654;28;20201;-47
2021/05/20 08:26:03;;;;;;;40.47;25.50;;;11.50;99.90;;;;;;5046414;28;20670;-48
2021/05/20 08:28:30;;;;;;;41.47;25.67;;;11.70;99.90;;;;;;5052763;28;20293;-48
2021/05/20 08:30:57;;;;;;;41.83;26.27;;;11.70;99.90;;;;;;5050964;28;20208;-47
2021/05/20 08:33:23;;;;;;;46.00;27.53;;;11.90;99.90;;;;;;5047998;28;20270;-50
2021/05/20 08:35:50;;;;;;;50.30;28.83;;;11.90;99.90;;;;;;5055119;28;20293;-49
2021/05/20 08:38:18;;;;;;;52.40;29.90;;;11.70;99.90;;;;;;5046557;28;20261;-48
2021/05/20 08:40:45;;;;;;;53.53;30.23;;;11.90;99.90;;;;;;5050467;28;20258;-48
2021/05/20 08:43:12;;;;;;;57.20;31.50;;;11.80;99.90;;;;;;5052648;28;20640;-48
2021/05/20 08:45:39;;;;;;;53.87;32.43;;;11.90;99.90;;;;;;5051597;28;20200;-49
2021/05/20 08:48:07;;;;;;;65.90;36.27;;;11.90;99.90;;;;;;5049830;28;20204;-49
2021/05/20 08:50:34;;;;;;;59.87;33.30;;;11.70;99.90;;;;;;5051810;28;20713;-49
2021/05/20 08:53:02;;;;;;;61.47;32.87;;;11.70;99.90;;;;;;5052014;28;20215;-49
2021/05/20 08:55:36;;;;;;;66.30;33.10;;;12.00;99.90;;;;;;5049378;28;20204;-48
2021/05/20 08:58:06;;;;;;;61.83;32.10;;;12.10;99.90;;;;;;5051402;28;20609;-49
2021/05/20 09:00:33;;;;;;;64.10;33.23;;;12.40;99.90;;;;;;5053365;28;20219;-49
2021/05/20 09:03:13;;;;;;;62.37;35.30;;;12.20;99.90;;;;;;5052438;28;20199;-49
2021/05/20 09:05:41;;;;;;;73.70;36.20;;;12.00;99.90;;;;;;5053918;28;20200;-49
2021/05/20 09:08:11;;;;;;;65.60;34.07;;;12.20;99.90;;;;;;5046642;28;20237;-49
2021/05/20 09:10:40;;;;;;;58.20;31.27;;;12.70;99.90;;;;;;5054294;28;20261;-51
2021/05/20 09:13:33;;;;;;;54.87;32.03;;;12.90;99.90;;;;;;5049322;28;20208;-51
2021/05/20 09:16:12;;;;;;;65.60;32.77;;;13.10;99.90;;;;;;5053576;28;20202;-48
2021/05/20 09:18:41;;;;;;;51.90;29.10;;;13.00;99.90;;;;;;5052009;28;20226;-50
2021/05/20 09:21:09;;;;;;;50.83;28.80;;;13.40;99.90;;;;;;5048832;28;20269;-55
2021/05/20 09:23:47;;;;;;;49.57;28.50;;;13.60;99.90;;;;;;5048643;28;20341;-54
2021/05/20 09:26:15;;;;;;;47.33;27.03;;;13.90;99.90;;;;;;5051259;28;20352;-55
2021/05/20 09:28:47;;;;;;;43.63;25.77;;;14.50;99.90;;;;;;5052780;28;20225;-56
2021/05/20 09:31:35;;;;;;;42.13;25.37;;;14.50;99.90;;;;;;5051322;28;21252;-55
2021/05/20 09:34:17;;;;;;;44.67;25.53;;;14.90;99.90;;;;;;5050717;28;20620;-49
2021/05/20 09:36:46;;;;;;;39.07;24.87;;;15.10;99.90;;;;;;5052152;28;20208;-49
2021/05/20 09:39:14;;;;;;;33.17;22.43;;;15.00;99.90;;;;;;5051313;28;20656;-49
2021/05/20 09:41:42;;;;;;;36.87;23.43;;;14.80;99.90;;;;;;5049118;28;20246;-49
2021/05/20 09:44:32;;;;;;;39.90;24.87;;;14.70;99.90;;;;;;5050766;28;21020;-49
2021/05/20 09:47:01;;;;;;;37.13;24.17;;;15.00;99.90;;;;;;5051624;28;20205;-49
2021/05/20 09:49:28;;;;;;;40.03;23.27;;;15.40;99.90;;;;;;5053395;28;20281;-50
2021/05/20 09:52:20;;;;;;;35.47;23.13;;;15.50;99.90;;;;;;5052519;28;20224;-50
2021/05/20 09:54:48;;;;;;;34.27;22.83;;;15.60;99.90;;;;;;5050274;28;20203;-49
2021/05/20 09:57:25;;;;;;;31.87;21.50;;;15.40;99.90;;;;;;5048188;28;20205;-50
2021/05/20 10:00:11;;;;;;;33.30;22.20;;;15.60;99.90;;;;;;5049870;28;20235;-49
2021/05/20 10:02:39;;;;;;;35.90;24.77;;;15.90;99.90;;;;;;5049349;28;20303;-50
2021/05/20 10:05:28;;;;;;;36.33;23.03;;;16.00;99.90;;;;;;5051507;28;20306;-50
2021/05/20 10:07:57;;;;;;;34.77;23.83;;;16.00;99.90;;;;;;5054906;28;20250;-49
2021/05/20 10:10:37;;;;;;;28.97;20.97;;;15.80;99.90;;;;;;5053858;28;20294;-50
2021/05/20 10:13:10;;;;;;;30.27;21.17;;;16.00;99.90;;;;;;5053125;28;20261;-50
2021/05/20 10:15:39;;;;;;;30.80;22.17;;;16.20;99.90;;;;;;5050902;28;20292;-49
2021/05/20 10:18:11;;;;;;;28.13;20.80;;;16.20;99.90;;;;;;5055695;28;20560;-49
2021/05/20 10:20:41;;;;;;;24.63;17.10;;;16.20;99.90;;;;;;5054607;28;20215;-50
2021/05/20 10:23:13;;;;;;;23.73;17.77;;;16.00;99.90;;;;;;5047939;28;20571;-50
2021/05/20 10:25:43;;;;;;;26.00;18.10;;;16.30;99.90;;;;;;5051830;28;20253;-50
2021/05/20 10:28:13;;;;;;;24.90;17.93;;;16.40;99.90;;;;;;5052748;28;20739;-50
2021/05/20 10:30:44;;;;;;;20.50;14.90;;;16.40;99.90;;;;;;5054000;28;20212;-50
2021/05/20 10:33:11;;;;;;;18.53;14.83;;;16.30;99.90;;;;;;5052147;28;20738;-49
2021/05/20 10:35:47;;;;;;;18.00;14.50;;;16.00;99.90;;;;;;5054245;28;20204;-49
2021/05/20 10:38:29;;;;;;;20.93;15.53;;;15.90;99.90;;;;;;5050989;28;20321;-50
2021/05/20 10:41:19;;;;;;;20.00;14.87;;;16.30;99.90;;;;;;5054936;28;20250;-49
2021/05/20 10:43:50;;;;;;;19.73;15.23;;;16.10;99.90;;;;;;5051432;28;20548;-49
2021/05/20 10:46:19;;;;;;;20.13;15.07;;;15.80;99.90;;;;;;5056645;28;20311;-50
2021/05/20 10:48:54;;;;;;;19.67;15.80;;;16.30;99.90;;;;;;5051747;28;20231;-49
2021/05/20 10:51:25;;;;;;;19.63;15.73;;;16.20;99.90;;;;;;5055561;28;20697;-49
2021/05/20 10:54:04;;;;;;;22.07;15.20;;;15.90;99.90;;;;;;5053589;28;20614;-50
2021/05/20 10:56:40;;;;;;;20.27;15.57;;;15.70;99.90;;;;;;5051333;28;20293;-49
2021/05/20 10:59:29;;;;;;;18.30;14.03;;;15.80;99.90;;;;;;5054205;28;20348;-50
2021/05/20 11:01:56;;;;;;;21.67;15.30;;;16.00;99.90;;;;;;5054407;28;20596;-50
2021/05/20 11:04:34;;;;;;;17.63;14.67;;;16.10;99.90;;;;;;5053857;28;20220;-50
2021/05/20 11:07:01;;;;;;;15.73;12.10;;;16.10;99.90;;;;;;5054871;28;20250;-50
2021/05/20 11:09:47;;;;;;;16.50;11.43;;;16.20;99.90;;;;;;5050571;28;20302;-49
2021/05/20 11:12:17;;;;;;;11.77;10.07;;;16.50;99.90;;;;;;5054405;28;20296;-49
2021/05/20 11:14:46;;;;;;;11.80;8.73;;;16.60;99.90;;;;;;5055308;28;20639;-49
2021/05/20 11:17:35;;;;;;;11.30;9.10;;;16.10;99.90;;;;;;5052068;28;20643;-49
2021/05/20 11:20:31;;;;;;;7.23;6.53;;;16.10;99.90;;;;;;5054896;28;20200;-49
2021/05/20 11:23:18;;;;;;;7.37;6.23;;;16.10;99.90;;;;;;5054720;28;20696;-49
2021/05/20 11:25:45;;;;;;;6.13;4.93;;;16.50;99.90;;;;;;5057360;28;20194;-49
2021/05/20 11:28:17;;;;;;;4.87;3.90;;;16.50;86.90;;;;;;5052260;28;20650;-49
2021/05/20 11:30:44;;;;;;;4.70;4.00;;;16.70;95.40;;;;;;5057636;28;20192;-51
2021/05/20 11:33:18;;;;;;;6.73;4.63;;;16.70;91.90;;;;;;5055456;28;20284;-49
2021/05/20 11:38:31;;;;;;;5.60;4.50;;;16.80;83.30;;;;;;5052992;28;20264;-49
2021/05/20 11:41:12;;;;;;;6.00;4.80;;;16.50;88.60;;;;;;5054562;28;20778;-50
2021/05/20 11:43:41;;;;;;;5.00;4.50;;;16.40;93.50;;;;;;5053932;28;20203;-52
2021/05/20 11:46:38;;;;;;;4.67;4.07;;;16.30;90.70;;;;;;5056416;28;20225;-49
2021/05/20 11:49:18;;;;;;;6.00;4.47;;;16.40;92.70;;;;;;5039528;28;20246;-50
2021/05/20 11:51:50;;;;;;;6.70;4.20;;;16.30;91.60;;;;;;5053337;28;20213;-49
2021/05/20 11:54:19;;;;;;;6.43;3.67;;;16.60;94.70;;;;;;5055234;28;20232;-50
2021/05/20 11:56:52;;;;;;;5.47;4.20;;;16.50;94.30;;;;;;5052513;28;20278;-50
2021/05/20 11:59:43;;;;;;;4.63;3.77;;;16.50;86.20;;;;;;5040642;28;20206;-51
2021/05/20 12:02:15;;;;;;;5.17;4.50;;;16.70;93.30;;;;;;5052029;28;20284;-50
2021/05/20 12:04:42;;;;;;;4.90;4.27;;;16.80;86.50;;;;;;5052120;28;20345;-50
2021/05/20 12:07:24;;;;;;;5.77;4.07;;;16.70;87.30;;;;;;5051052;28;20627;-50
2021/05/20 12:10:06;;;;;;;4.30;3.90;;;16.80;91.90;;;;;;5052466;28;20235;-50
2021/05/20 12:12:36;;;;;;;5.70;4.50;;;17.10;90.50;;;;;;5053173;28;20794;-50
2021/05/20 12:15:11;;;;;;;5.30;3.90;;;16.90;81.30;;;;;;5054491;28;20225;-49
2021/05/20 12:17:39;;;;;;;5.63;3.93;;;16.90;76.60;;;;;;5051228;28;20340;-49
2021/05/20 12:20:07;;;;;;;4.40;4.00;;;16.70;85.00;;;;;;5047979;28;20237;-50
2021/05/20 12:22:34;;;;;;;5.13;3.60;;;16.70;91.10;;;;;;5047949;28;20540;-49
2021/05/20 12:25:05;;;;;;;4.17;3.57;;;16.70;77.70;;;;;;5048457;28;20203;-49
2021/05/20 12:27:54;;;;;;;5.30;3.83;;;16.40;78.40;;;;;;5050591;28;20252;-49
2021/05/20 12:30:23;;;;;;;5.40;4.77;;;16.30;79.00;;;;;;5048995;28;20199;-50
2021/05/20 12:32:55;;;;;;;8.00;4.63;;;16.30;84.40;;;;;;5046958;28;21110;-51
2021/05/20 12:35:30;;;;;;;4.87;4.37;;;16.30;90.30;;;;;;5052408;28;20281;-50
2021/05/20 12:38:10;;;;;;;4.57;4.00;;;16.30;83.60;;;;;;5046840;28;20367;-50
2021/05/20 12:40:53;;;;;;;3.83;3.53;;;16.50;90.30;;;;;;5050820;28;20200;-50
2021/05/20 12:43:31;;;;;;;6.53;3.37;;;16.60;84.10;;;;;;5048880;28;20329;-50
2021/05/20 12:46:02;;;;;;;5.23;3.50;;;16.60;85.30;;;;;;5050059;28;20213;-51
2021/05/20 12:48:40;;;;;;;4.23;3.83;;;16.80;92.50;;;;;;5049272;28;20722;-50
2021/05/20 12:51:13;;;;;;;4.40;3.90;;;16.70;92.10;;;;;;5047818;28;20202;-50
2021/05/20 12:53:51;;;;;;;4.90;3.90;;;16.60;91.50;;;;;;5048703;28;20849;-50
2021/05/20 12:56:21;;;;;;;5.03;4.10;;;16.70;85.00;;;;;;5049194;28;20239;-50